Halcyon, California
Current Conditions -  °F | °C
As of 7:56 AM on Friday 19 Dec 2014 (Local Time) from KSBP Reporting Station
Broken Clouds Broken Clouds  
Wind Chill: 49°   Ceiling: 20000
Heat Index: 49°   Visibility: 10mi
Dew Point: 47°   Wind: 0mph
Humidity: 93%   Direction: NA
Pressure: 30.21"   Gusts: NA
Location:  35.1188°N, 120.589°W
Report Text: KSBP 191556Z 00000KT 10SM BKN200 09/08 A3021 RMK AO2 SLP230 T00940083
Loading
Personal Weather Stations






























Interactive Weather Map New forecast layout! Learn more

10-Day Weather Forecast

Advertisements
Track Severe Weather on mobile